sensor_id;sensor_type;location;lat;lon;timestamp;pressure;altitude;pressure_sealevel;temperature;humidity
61528;BME280;47395;42.032;-8.634;2023-04-23T00:00:31;100753.25;;;15.37;93.12
61528;BME280;47395;42.032;-8.634;2023-04-23T00:02:34;100742.53;;;15.38;93.55
61528;BME280;47395;42.032;-8.634;2023-04-23T00:04:37;100757.50;;;15.39;93.91
61528;BME280;47395;42.032;-8.634;2023-04-23T00:06:38;100750.63;;;15.37;94.00
61528;BME280;47395;42.032;-8.634;2023-04-23T00:08:40;100754.97;;;15.38;93.72
61528;BME280;47395;42.032;-8.634;2023-04-23T00:10:41;100754.66;;;15.43;93.69
61528;BME280;47395;42.032;-8.634;2023-04-23T00:12:45;100758.13;;;15.43;93.65
61528;BME280;47395;42.032;-8.634;2023-04-23T00:14:46;100755.19;;;15.48;94.27
61528;BME280;47395;42.032;-8.634;2023-04-23T00:16:49;100760.69;;;15.45;94.50
61528;BME280;47395;42.032;-8.634;2023-04-23T00:18:50;100755.38;;;15.45;95.08
61528;BME280;47395;42.032;-8.634;2023-04-23T00:20:52;100757.41;;;15.41;95.42
61528;BME280;47395;42.032;-8.634;2023-04-23T00:22:54;100758.13;;;15.43;95.52
61528;BME280;47395;42.032;-8.634;2023-04-23T00:24:55;100752.09;;;15.41;95.97
61528;BME280;47395;42.032;-8.634;2023-04-23T00:26:56;100752.94;;;15.42;95.90
61528;BME280;47395;42.032;-8.634;2023-04-23T00:28:58;100759.63;;;15.47;95.50
61528;BME280;47395;42.032;-8.634;2023-04-23T00:31:00;100760.28;;;15.51;95.00
61528;BME280;47395;42.032;-8.634;2023-04-23T00:33:01;100762.41;;;15.59;94.96
61528;BME280;47395;42.032;-8.634;2023-04-23T00:35:02;100755.16;;;15.61;95.05
61528;BME280;47395;42.032;-8.634;2023-04-23T00:37:04;100754.22;;;15.62;94.85
61528;BME280;47395;42.032;-8.634;2023-04-23T00:39:06;100759.53;;;15.62;94.47
61528;BME280;47395;42.032;-8.634;2023-04-23T00:41:07;100767.28;;;15.65;94.03
61528;BME280;47395;42.032;-8.634;2023-04-23T00:43:10;100754.00;;;15.65;93.82
61528;BME280;47395;42.032;-8.634;2023-04-23T00:45:13;100752.63;;;15.72;93.62
61528;BME280;47395;42.032;-8.634;2023-04-23T00:47:14;100743.47;;;15.76;93.15
61528;BME280;47395;42.032;-8.634;2023-04-23T00:49:17;100743.88;;;15.70;93.42
61528;BME280;47395;42.032;-8.634;2023-04-23T00:51:20;100744.44;;;15.75;93.51
61528;BME280;47395;42.032;-8.634;2023-04-23T00:53:22;100742.50;;;15.77;92.82
61528;BME280;47395;42.032;-8.634;2023-04-23T00:55:23;100744.19;;;15.78;92.96
61528;BME280;47395;42.032;-8.634;2023-04-23T00:57:26;100738.69;;;15.82;92.55
61528;BME280;47395;42.032;-8.634;2023-04-23T00:59:27;100742.50;;;15.77;92.71
61528;BME280;47395;42.032;-8.634;2023-04-23T01:01:29;100737.00;;;15.81;92.58
61528;BME280;47395;42.032;-8.634;2023-04-23T01:03:30;100730.41;;;15.86;91.99
61528;BME280;47395;42.032;-8.634;2023-04-23T01:05:32;100730.41;;;15.86;91.94
61528;BME280;47395;42.032;-8.634;2023-04-23T01:07:34;100733.16;;;15.85;91.91
61528;BME280;47395;42.032;-8.634;2023-04-23T01:09:35;100743.03;;;15.83;92.01
61528;BME280;47395;42.032;-8.634;2023-04-23T01:11:41;100738.69;;;15.82;92.09
61528;BME280;47395;42.032;-8.634;2023-04-23T01:13:43;100732.41;;;15.83;92.38
61528;BME280;47395;42.032;-8.634;2023-04-23T01:15:44;100738.78;;;15.80;91.92
61528;BME280;47395;42.032;-8.634;2023-04-23T01:17:45;100734.34;;;15.81;92.30
61528;BME280;47395;42.032;-8.634;2023-04-23T01:19:49;100744.63;;;15.85;92.43
61528;BME280;47395;42.032;-8.634;2023-04-23T01:21:50;100744.41;;;15.88;92.25
61528;BME280;47395;42.032;-8.634;2023-04-23T01:23:51;100740.25;;;15.84;92.92
61528;BME280;47395;42.032;-8.634;2023-04-23T01:25:53;100734.75;;;15.87;92.38
61528;BME280;47395;42.032;-8.634;2023-04-23T01:27:55;100729.53;;;15.86;92.16
61528;BME280;47395;42.032;-8.634;2023-04-23T01:29:57;100736.53;;;15.87;93.06
61528;BME280;47395;42.032;-8.634;2023-04-23T01:31:59;100728.91;;;15.82;93.12
61528;BME280;47395;42.032;-8.634;2023-04-23T01:34:01;100731.88;;;15.77;93.29
61528;BME280;47395;42.032;-8.634;2023-04-23T01:36:03;100731.69;;;15.81;93.22
61528;BME280;47395;42.032;-8.634;2023-04-23T01:38:05;100726.38;;;15.81;93.85
61528;BME280;47395;42.032;-8.634;2023-04-23T01:40:08;100720.81;;;15.84;93.48
61528;BME280;47395;42.032;-8.634;2023-04-23T01:42:09;100727.19;;;15.81;93.26
61528;BME280;47395;42.032;-8.634;2023-04-23T01:44:11;100716.34;;;15.84;92.78
61528;BME280;47395;42.032;-8.634;2023-04-23T01:46:12;100716.56;;;15.81;92.77
61528;BME280;47395;42.032;-8.634;2023-04-23T01:48:13;100719.97;;;15.83;92.34
61528;BME280;47395;42.032;-8.634;2023-04-23T01:50:14;100705.13;;;15.81;92.02
61528;BME280;47395;42.032;-8.634;2023-04-23T01:52:16;100723.25;;;15.87;92.15
61528;BME280;47395;42.032;-8.634;2023-04-23T01:54:18;100725.91;;;15.87;91.92
61528;BME280;47395;42.032;-8.634;2023-04-23T01:56:22;100715.19;;;15.88;92.12
61528;BME280;47395;42.032;-8.634;2023-04-23T01:58:25;100715.91;;;15.90;91.90
61528;BME280;47395;42.032;-8.634;2023-04-23T02:00:27;100725.59;;;15.91;91.50
61528;BME280;47395;42.032;-8.634;2023-04-23T02:02:29;100717.53;;;15.93;91.69
61528;BME280;47395;42.032;-8.634;2023-04-23T02:04:29;100717.94;;;15.87;91.71
61528;BME280;47395;42.032;-8.634;2023-04-23T02:06:31;100722.53;;;15.85;91.79
61528;BME280;47395;42.032;-8.634;2023-04-23T02:08:32;100720.59;;;15.87;91.35
61528;BME280;47395;42.032;-8.634;2023-04-23T02:10:32;100713.25;;;15.90;91.77
61528;BME280;47395;42.032;-8.634;2023-04-23T02:12:35;100730.06;;;15.91;91.66
61528;BME280;47395;42.032;-8.634;2023-04-23T02:14:37;100730.81;;;15.93;91.67
61528;BME280;47395;42.032;-8.634;2023-04-23T02:16:38;100723.16;;;15.88;92.43
61528;BME280;47395;42.032;-8.634;2023-04-23T02:18:39;100723.88;;;15.90;91.66
61528;BME280;47395;42.032;-8.634;2023-04-23T02:20:40;100716.59;;;15.94;91.63
61528;BME280;47395;42.032;-8.634;2023-04-23T02:22:42;100718.16;;;15.97;91.31
61528;BME280;47395;42.032;-8.634;2023-04-23T02:24:44;100725.06;;;15.99;91.81
61528;BME280;47395;42.032;-8.634;2023-04-23T02:26:46;100721.00;;;15.93;91.54
61528;BME280;47395;42.032;-8.634;2023-04-23T02:28:49;100726.03;;;15.98;91.82
61528;BME280;47395;42.032;-8.634;2023-04-23T02:30:50;100721.00;;;15.93;92.10
61528;BME280;47395;42.032;-8.634;2023-04-23T02:32:52;100729.09;;;15.92;91.95
61528;BME280;47395;42.032;-8.634;2023-04-23T02:34:54;100725.50;;;15.93;91.80
61528;BME280;47395;42.032;-8.634;2023-04-23T02:36:56;100721.13;;;15.92;92.33
61528;BME280;47395;42.032;-8.634;2023-04-23T02:38:57;100724.22;;;15.99;92.22
61528;BME280;47395;42.032;-8.634;2023-04-23T02:40:58;100726.03;;;15.98;92.10
61528;BME280;47395;42.032;-8.634;2023-04-23T02:42:59;100724.34;;;15.97;92.38
61528;BME280;47395;42.032;-8.634;2023-04-23T02:45:00;100728.69;;;15.98;91.99
61528;BME280;47395;42.032;-8.634;2023-04-23T02:47:02;100724.00;;;16.02;92.17
61528;BME280;47395;42.032;-8.634;2023-04-23T02:49:03;100731.25;;;16.00;92.53
61528;BME280;47395;42.032;-8.634;2023-04-23T02:51:05;100725.59;;;16.04;92.21
61528;BME280;47395;42.032;-8.634;2023-04-23T02:53:06;100712.75;;;15.98;92.47
61528;BME280;47395;42.032;-8.634;2023-04-23T02:55:09;100723.88;;;16.03;92.30
61528;BME280;47395;42.032;-8.634;2023-04-23T02:57:10;100731.88;;;16.03;91.87
61528;BME280;47395;42.032;-8.634;2023-04-23T02:59:14;100728.84;;;16.08;91.20
61528;BME280;47395;42.032;-8.634;2023-04-23T03:01:15;100726.84;;;16.12;91.24
61528;BME280;47395;42.032;-8.634;2023-04-23T03:03:16;100731.41;;;16.10;91.95
61528;BME280;47395;42.032;-8.634;2023-04-23T03:05:17;100738.03;;;15.91;95.55
61528;BME280;47395;42.032;-8.634;2023-04-23T03:07:19;100744.53;;;15.74;96.80
61528;BME280;47395;42.032;-8.634;2023-04-23T03:09:21;100747.00;;;15.64;97.95
61528;BME280;47395;42.032;-8.634;2023-04-23T03:11:22;100755.41;;;15.58;98.49
61528;BME280;47395;42.032;-8.634;2023-04-23T03:13:24;100741.25;;;15.57;98.62
61528;BME280;47395;42.032;-8.634;2023-04-23T03:15:26;100736.69;;;15.59;98.83
61528;BME280;47395;42.032;-8.634;2023-04-23T03:17:27;100743.81;;;15.59;99.13
61528;BME280;47395;42.032;-8.634;2023-04-23T03:19:28;100757.19;;;15.57;99.33
61528;BME280;47395;42.032;-8.634;2023-04-23T03:21:33;100741.88;;;15.61;99.86
61528;BME280;47395;42.032;-8.634;2023-04-23T03:23:35;100748.25;;;15.58;99.92
61528;BME280;47395;42.032;-8.634;2023-04-23T03:25:36;100744.63;;;15.59;99.28
61528;BME280;47395;42.032;-8.634;2023-04-23T03:27:38;100745.19;;;15.64;100.00
61528;BME280;47395;42.032;-8.634;2023-04-23T03:29:40;100752.00;;;15.69;99.12
61528;BME280;47395;42.032;-8.634;2023-04-23T03:31:41;100759.09;;;15.68;99.40
61528;BME280;47395;42.032;-8.634;2023-04-23T03:33:44;100756.66;;;15.65;99.05
61528;BME280;47395;42.032;-8.634;2023-04-23T03:35:45;100761.66;;;15.70;98.72
61528;BME280;47395;42.032;-8.634;2023-04-23T03:37:51;100754.94;;;15.77;98.91
61528;BME280;47395;42.032;-8.634;2023-04-23T03:39:53;100765.56;;;15.77;98.79
61528;BME280;47395;42.032;-8.634;2023-04-23T03:41:54;100767.38;;;15.76;98.69
61528;BME280;47395;42.032;-8.634;2023-04-23T03:44:00;100766.22;;;15.81;98.40
61528;BME280;47395;42.032;-8.634;2023-04-23T03:46:15;100761.09;;;15.77;98.68
61528;BME280;47395;42.032;-8.634;2023-04-23T03:48:16;100762.78;;;15.78;98.58
61528;BME280;47395;42.032;-8.634;2023-04-23T03:50:18;100758.44;;;15.77;98.56
61528;BME280;47395;42.032;-8.634;2023-04-23T03:52:27;100766.53;;;15.76;98.36
61528;BME280;47395;42.032;-8.634;2023-04-23T03:54:28;100761.22;;;15.76;98.47
61528;BME280;47395;42.032;-8.634;2023-04-23T03:56:46;100763.56;;;15.81;97.95
61528;BME280;47395;42.032;-8.634;2023-04-23T03:58:54;100762.59;;;15.82;97.93
61528;BME280;47395;42.032;-8.634;2023-04-23T04:00:56;100751.25;;;15.79;98.30
61528;BME280;47395;42.032;-8.634;2023-04-23T04:05:01;100752.94;;;15.81;98.05
61528;BME280;47395;42.032;-8.634;2023-04-23T04:07:02;100758.25;;;15.81;98.13
61528;BME280;47395;42.032;-8.634;2023-04-23T04:09:03;100751.53;;;15.75;99.11
61528;BME280;47395;42.032;-8.634;2023-04-23T04:11:04;100753.78;;;15.68;99.90
61528;BME280;47395;42.032;-8.634;2023-04-23T04:13:06;100754.00;;;15.65;100.00
61528;BME280;47395;42.032;-8.634;2023-04-23T04:15:08;100760.47;;;15.61;100.00
61528;BME280;47395;42.032;-8.634;2023-04-23T04:17:09;100746.47;;;15.59;100.00
61528;BME280;47395;42.032;-8.634;2023-04-23T04:19:10;100748.16;;;15.60;100.00
61528;BME280;47395;42.032;-8.634;2023-04-23T04:21:11;100749.75;;;15.62;100.00
61528;BME280;47395;42.032;-8.634;2023-04-23T04:23:12;100748.91;;;15.62;100.00
61528;BME280;47395;42.032;-8.634;2023-04-23T04:25:13;100754.84;;;15.65;99.94
61528;BME280;47395;42.032;-8.634;2023-04-23T04:27:13;100750.94;;;15.71;99.27
61528;BME280;47395;42.032;-8.634;2023-04-23T04:29:15;100754.84;;;15.65;99.01
61528;BME280;47395;42.032;-8.634;2023-04-23T04:31:16;100749.19;;;15.70;98.71
61528;BME280;47395;42.032;-8.634;2023-04-23T04:33:17;100756.34;;;15.70;98.92
61528;BME280;47395;42.032;-8.634;2023-04-23T04:35:18;100754.31;;;15.73;98.30
61528;BME280;47395;42.032;-8.634;2023-04-23T04:37:19;100762.28;;;15.73;97.98
61528;BME280;47395;42.032;-8.634;2023-04-23T04:39:22;100762.06;;;15.76;96.94
61528;BME280;47395;42.032;-8.634;2023-04-23T04:41:26;100758.44;;;15.77;97.53
61528;BME280;47395;42.032;-8.634;2023-04-23T04:43:27;100759.22;;;15.79;97.08
61528;BME280;47395;42.032;-8.634;2023-04-23T04:45:28;100758.44;;;15.77;97.39
61528;BME280;47395;42.032;-8.634;2023-04-23T04:47:29;100765.44;;;15.78;98.02
61528;BME280;47395;42.032;-8.634;2023-04-23T04:49:30;100750.59;;;15.76;98.38
61528;BME280;47395;42.032;-8.634;2023-04-23T04:51:31;100760.38;;;15.75;97.94
61528;BME280;47395;42.032;-8.634;2023-04-23T04:53:37;100752.50;;;15.74;98.20
61528;BME280;47395;42.032;-8.634;2023-04-23T04:55:38;100750.28;;;15.68;99.88
61528;BME280;47395;42.032;-8.634;2023-04-23T04:57:38;100745.72;;;15.57;100.00
61528;BME280;47395;42.032;-8.634;2023-04-23T04:59:39;100756.56;;;15.53;100.00
61528;BME280;47395;42.032;-8.634;2023-04-23T05:01:40;100747.31;;;15.46;100.00
61528;BME280;47395;42.032;-8.634;2023-04-23T05:03:41;100740.22;;;15.47;100.00
61528;BME280;47395;42.032;-8.634;2023-04-23T05:05:42;100738.63;;;15.44;100.00
61528;BME280;47395;42.032;-8.634;2023-04-23T05:07:44;100743.81;;;15.46;100.00
61528;BME280;47395;42.032;-8.634;2023-04-23T05:09:45;100737.88;;;15.42;100.00
61528;BME280;47395;42.032;-8.634;2023-04-23T05:11:46;100743.16;;;15.42;100.00
61528;BME280;47395;42.032;-8.634;2023-04-23T05:13:47;100738.72;;;15.43;100.00
61528;BME280;47395;42.032;-8.634;2023-04-23T05:15:48;100746.91;;;15.39;100.00
61528;BME280;47395;42.032;-8.634;2023-04-23T05:17:49;100748.69;;;15.39;100.00
61528;BME280;47395;42.032;-8.634;2023-04-23T05:19:52;100751.56;;;15.36;100.00
61528;BME280;47395;42.032;-8.634;2023-04-23T05:21:54;100757.41;;;15.41;100.00
61528;BME280;47395;42.032;-8.634;2023-04-23T05:23:55;100768.13;;;15.39;100.00
61528;BME280;47395;42.032;-8.634;2023-04-23T05:25:55;100764.63;;;15.39;100.00
61528;BME280;47395;42.032;-8.634;2023-04-23T05:27:58;100770.78;;;15.39;100.00
61528;BME280;47395;42.032;-8.634;2023-04-23T05:30:00;100790.00;;;15.43;100.00
61528;BME280;47395;42.032;-8.634;2023-04-23T05:32:02;100782.78;;;15.45;100.00
61528;BME280;47395;42.032;-8.634;2023-04-23T05:34:02;100786.50;;;15.43;100.00
61528;BME280;47395;42.032;-8.634;2023-04-23T05:36:04;100776.53;;;15.46;100.00
61528;BME280;47395;42.032;-8.634;2023-04-23T05:38:04;100761.75;;;15.42;100.00
61528;BME280;47395;42.032;-8.634;2023-04-23T05:40:06;100773.34;;;15.41;100.00
61528;BME280;47395;42.032;-8.634;2023-04-23T05:42:07;100770.88;;;15.38;100.00
61528;BME280;47395;42.032;-8.634;2023-04-23T05:44:08;100787.56;;;15.40;100.00
61528;BME280;47395;42.032;-8.634;2023-04-23T05:46:09;100794.69;;;15.39;100.00
61528;BME280;47395;42.032;-8.634;2023-04-23T05:48:10;100794.69;;;15.39;100.00
61528;BME280;47395;42.032;-8.634;2023-04-23T05:50:11;100797.53;;;15.36;100.00
61528;BME280;47395;42.032;-8.634;2023-04-23T05:52:12;100791.38;;;15.49;100.00
61528;BME280;47395;42.032;-8.634;2023-04-23T05:54:13;100801.81;;;15.52;100.00
61528;BME280;47395;42.032;-8.634;2023-04-23T05:56:14;100814.75;;;15.57;100.00
61528;BME280;47395;42.032;-8.634;2023-04-23T05:58:16;100816.25;;;15.61;100.00
61528;BME280;47395;42.032;-8.634;2023-04-23T06:00:18;100829.31;;;15.64;100.00
61528;BME280;47395;42.032;-8.634;2023-04-23T06:02:20;100820.38;;;15.65;100.00
61528;BME280;47395;42.032;-8.634;2023-04-23T06:04:21;100826.66;;;15.64;100.00
61528;BME280;47395;42.032;-8.634;2023-04-23T06:06:22;100834.63;;;15.64;100.00
61528;BME280;47395;42.032;-8.634;2023-04-23T06:08:23;100835.78;;;15.60;100.00
61528;BME280;47395;42.032;-8.634;2023-04-23T06:10:24;100841.09;;;15.47;100.00
61528;BME280;47395;42.032;-8.634;2023-04-23T06:12:25;100840.03;;;15.49;100.00
61528;BME280;47395;42.032;-8.634;2023-04-23T06:14:26;100839.19;;;15.49;100.00
61528;BME280;47395;42.032;-8.634;2023-04-23T06:16:27;100840.78;;;15.51;100.00
61528;BME280;47395;42.032;-8.634;2023-04-23T06:18:28;100835.78;;;15.47;100.00
61528;BME280;47395;42.032;-8.634;2023-04-23T06:20:29;100847.16;;;15.49;100.00
61528;BME280;47395;42.032;-8.634;2023-04-23T06:22:30;100848.22;;;15.46;100.00
61528;BME280;47395;42.032;-8.634;2023-04-23T06:24:32;100851.91;;;15.44;100.00
61528;BME280;47395;42.032;-8.634;2023-04-23T06:26:33;100857.47;;;15.53;100.00
61528;BME280;47395;42.032;-8.634;2023-04-23T06:28:43;100859.97;;;15.42;100.00
61528;BME280;47395;42.032;-8.634;2023-04-23T06:31:08;100861.47;;;15.46;100.00
61528;BME280;47395;42.032;-8.634;2023-04-23T06:33:09;100860.94;;;15.54;100.00
61528;BME280;47395;42.032;-8.634;2023-04-23T06:35:10;100861.50;;;15.59;100.00
61528;BME280;47395;42.032;-8.634;2023-04-23T06:37:11;100876.16;;;15.65;100.00
61528;BME280;47395;42.032;-8.634;2023-04-23T06:39:11;100868.09;;;15.66;100.00
61528;BME280;47395;42.032;-8.634;2023-04-23T06:41:12;100865.88;;;15.73;100.00
61528;BME280;47395;42.032;-8.634;2023-04-23T06:43:13;100867.56;;;15.74;100.00
61528;BME280;47395;42.032;-8.634;2023-04-23T06:45:41;100872.03;;;15.74;100.00
61528;BME280;47395;42.032;-8.634;2023-04-23T06:47:41;100869.06;;;15.78;100.00
61528;BME280;47395;42.032;-8.634;2023-04-23T06:49:42;100862.66;;;15.81;100.00
61528;BME280;47395;42.032;-8.634;2023-04-23T06:51:43;100875.13;;;15.81;100.00
61528;BME280;47395;42.032;-8.634;2023-04-23T06:53:45;100877.13;;;15.90;100.00
61528;BME280;47395;42.032;-8.634;2023-04-23T06:55:46;100876.19;;;15.91;100.00
61528;BME280;47395;42.032;-8.634;2023-04-23T06:57:49;100874.28;;;15.93;100.00
61528;BME280;47395;42.032;-8.634;2023-04-23T06:59:50;100879.59;;;15.93;100.00
61528;BME280;47395;42.032;-8.634;2023-04-23T07:01:54;100886.81;;;15.91;100.00
61528;BME280;47395;42.032;-8.634;2023-04-23T07:03:55;100893.44;;;15.98;100.00
61528;BME280;47395;42.032;-8.634;2023-04-23T07:05:56;100887.56;;;15.93;100.00
61528;BME280;47395;42.032;-8.634;2023-04-23T07:07:57;100889.56;;;15.89;100.00
61528;BME280;47395;42.032;-8.634;2023-04-23T07:09:58;100891.63;;;15.99;100.00
61528;BME280;47395;42.032;-8.634;2023-04-23T07:11:59;100889.66;;;15.88;100.00
61528;BME280;47395;42.032;-8.634;2023-04-23T07:14:01;100891.94;;;15.94;100.00
61528;BME280;47395;42.032;-8.634;2023-04-23T07:16:02;100898.00;;;15.96;100.00
61528;BME280;47395;42.032;-8.634;2023-04-23T07:18:04;100893.00;;;16.04;100.00
61528;BME280;47395;42.032;-8.634;2023-04-23T07:20:06;100898.84;;;16.10;100.00
61528;BME280;47395;42.032;-8.634;2023-04-23T07:22:08;100910.66;;;16.18;100.00
61528;BME280;47395;42.032;-8.634;2023-04-23T07:24:09;100904.03;;;16.37;100.00
61528;BME280;47395;42.032;-8.634;2023-04-23T07:26:10;100917.53;;;16.47;99.84
61528;BME280;47395;42.032;-8.634;2023-04-23T07:28:12;100909.31;;;16.50;98.81
61528;BME280;47395;42.032;-8.634;2023-04-23T07:30:13;100899.84;;;16.59;98.26
61528;BME280;47395;42.032;-8.634;2023-04-23T07:32:14;100906.97;;;16.58;98.04
61528;BME280;47395;42.032;-8.634;2023-04-23T07:34:15;100902.06;;;16.65;97.49
61528;BME280;47395;42.032;-8.634;2023-04-23T07:36:17;100904.28;;;16.72;97.31
61528;BME280;47395;42.032;-8.634;2023-04-23T07:38:18;100899.06;;;16.70;96.60
61528;BME280;47395;42.032;-8.634;2023-04-23T07:40:20;100901.28;;;16.76;96.37
61528;BME280;47395;42.032;-8.634;2023-04-23T07:42:22;100899.69;;;16.74;95.96
61528;BME280;47395;42.032;-8.634;2023-04-23T07:44:23;100901.63;;;16.72;95.75
61528;BME280;47395;42.032;-8.634;2023-04-23T07:46:25;100895.91;;;16.65;95.38
61528;BME280;47395;42.032;-8.634;2023-04-23T07:48:26;100901.66;;;16.58;95.56
61528;BME280;47395;42.032;-8.634;2023-04-23T07:50:28;100905.16;;;16.59;95.23
61528;BME280;47395;42.032;-8.634;2023-04-23T07:52:29;100904.75;;;16.52;95.66
61528;BME280;47395;42.032;-8.634;2023-04-23T07:54:30;100908.59;;;16.48;95.65
61528;BME280;47395;42.032;-8.634;2023-04-23T07:56:31;100910.94;;;16.40;96.05
61528;BME280;47395;42.032;-8.634;2023-04-23T07:58:32;100907.41;;;16.39;96.05
61528;BME280;47395;42.032;-8.634;2023-04-23T08:00:34;100906.69;;;16.37;96.62
61528;BME280;47395;42.032;-8.634;2023-04-23T08:02:36;100914.00;;;16.47;96.03
61528;BME280;47395;42.032;-8.634;2023-04-23T08:04:38;100913.69;;;16.38;96.17
61528;BME280;47395;42.032;-8.634;2023-04-23T08:06:39;100922.03;;;16.34;96.40
61528;BME280;47395;42.032;-8.634;2023-04-23T08:08:41;100913.59;;;16.40;96.32
61528;BME280;47395;42.032;-8.634;2023-04-23T08:10:42;100916.38;;;16.38;95.91
61528;BME280;47395;42.032;-8.634;2023-04-23T08:12:43;100910.63;;;16.44;95.96
61528;BME280;47395;42.032;-8.634;2023-04-23T08:14:44;100922.34;;;16.42;95.36
61528;BME280;47395;42.032;-8.634;2023-04-23T08:16:50;100924.34;;;16.51;95.23
61528;BME280;47395;42.032;-8.634;2023-04-23T08:18:51;100924.75;;;16.58;94.61
61528;BME280;47395;42.032;-8.634;2023-04-23T08:20:53;100915.75;;;16.72;94.44
61528;BME280;47395;42.032;-8.634;2023-04-23T08:22:57;100924.28;;;16.77;93.91
61528;BME280;47395;42.032;-8.634;2023-04-23T08:24:57;100918.00;;;16.78;93.07
61528;BME280;47395;42.032;-8.634;2023-04-23T08:26:58;100925.88;;;16.80;93.17
61528;BME280;47395;42.032;-8.634;2023-04-23T08:28:59;100923.84;;;16.83;93.16
61528;BME280;47395;42.032;-8.634;2023-04-23T08:31:00;100923.63;;;16.87;93.29
61528;BME280;47395;42.032;-8.634;2023-04-23T08:33:01;100917.31;;;16.88;93.20
61528;BME280;47395;42.032;-8.634;2023-04-23T08:35:02;100916.44;;;17.00;93.04
61528;BME280;47395;42.032;-8.634;2023-04-23T08:37:04;100919.75;;;17.28;91.71
61528;BME280;47395;42.032;-8.634;2023-04-23T08:39:05;100920.91;;;17.48;91.21
61528;BME280;47395;42.032;-8.634;2023-04-23T08:41:09;100931.25;;;17.65;89.67
61528;BME280;47395;42.032;-8.634;2023-04-23T08:43:30;100918.41;;;17.58;89.06
61528;BME280;47395;42.032;-8.634;2023-04-23T08:45:33;100923.38;;;17.63;89.21
61528;BME280;47395;42.032;-8.634;2023-04-23T08:47:41;100916.63;;;17.70;89.11
61528;BME280;47395;42.032;-8.634;2023-04-23T08:49:45;100915.03;;;17.68;89.30
61528;BME280;47395;42.032;-8.634;2023-04-23T08:51:52;100914.81;;;17.82;89.11
61528;BME280;47395;42.032;-8.634;2023-04-23T08:53:57;100920.19;;;17.94;88.27
61528;BME280;47395;42.032;-8.634;2023-04-23T08:55:58;100914.00;;;17.93;87.96
61528;BME280;47395;42.032;-8.634;2023-04-23T08:58:00;100911.72;;;18.00;87.58
61528;BME280;47395;42.032;-8.634;2023-04-23T09:00:03;100911.19;;;17.83;88.05
61528;BME280;47395;42.032;-8.634;2023-04-23T09:02:08;100912.75;;;17.74;89.45
61528;BME280;47395;42.032;-8.634;2023-04-23T09:04:10;100916.56;;;17.59;91.67
61528;BME280;47395;42.032;-8.634;2023-04-23T09:06:18;100911.88;;;17.63;91.87
61528;BME280;47395;42.032;-8.634;2023-04-23T09:08:19;100924.63;;;17.70;92.23
61528;BME280;47395;42.032;-8.634;2023-04-23T09:10:22;100919.56;;;17.90;91.12
61528;BME280;47395;42.032;-8.634;2023-04-23T09:12:23;100914.56;;;17.74;91.53
61528;BME280;47395;42.032;-8.634;2023-04-23T09:14:25;100921.91;;;17.59;92.86
61528;BME280;47395;42.032;-8.634;2023-04-23T09:16:26;100927.53;;;17.43;93.73
61528;BME280;47395;42.032;-8.634;2023-04-23T09:18:27;100930.47;;;17.51;93.86
61528;BME280;47395;42.032;-8.634;2023-04-23T09:20:31;100921.91;;;17.59;93.55
61528;BME280;47395;42.032;-8.634;2023-04-23T09:22:45;100929.28;;;17.55;93.43
61528;BME280;47395;42.032;-8.634;2023-04-23T09:24:48;100921.13;;;17.81;92.27
61528;BME280;47395;42.032;-8.634;2023-04-23T09:26:50;100922.22;;;17.90;92.14
61528;BME280;47395;42.032;-8.634;2023-04-23T09:28:51;100929.63;;;17.86;91.11
61528;BME280;47395;42.032;-8.634;2023-04-23T09:30:52;100935.19;;;17.83;92.17
61528;BME280;47395;42.032;-8.634;2023-04-23T09:32:53;100947.41;;;17.74;93.63
61528;BME280;47395;42.032;-8.634;2023-04-23T09:34:55;100951.66;;;17.77;94.00
61528;BME280;47395;42.032;-8.634;2023-04-23T09:36:58;100946.25;;;17.54;92.48
61528;BME280;47395;42.032;-8.634;2023-04-23T09:38:59;100940.31;;;17.51;92.88
61528;BME280;47395;42.032;-8.634;2023-04-23T09:41:22;100947.94;;;17.55;93.50
61528;BME280;47395;42.032;-8.634;2023-04-23T09:43:23;100943.34;;;17.57;93.15
61528;BME280;47395;42.032;-8.634;2023-04-23T09:45:25;100944.78;;;17.86;92.98
61528;BME280;47395;42.032;-8.634;2023-04-23T09:47:31;100943.34;;;18.05;90.16
61528;BME280;47395;42.032;-8.634;2023-04-23T09:49:44;100944.38;;;18.15;89.36
61528;BME280;47395;42.032;-8.634;2023-04-23T09:51:47;100952.38;;;18.38;88.23
61528;BME280;47395;42.032;-8.634;2023-04-23T09:53:48;100948.97;;;18.24;87.94
61528;BME280;47395;42.032;-8.634;2023-04-23T09:55:51;100952.13;;;18.30;87.92
61528;BME280;47395;42.032;-8.634;2023-04-23T09:57:52;100951.47;;;18.03;86.66
61528;BME280;47395;42.032;-8.634;2023-04-23T09:59:56;100951.81;;;17.87;87.21
61528;BME280;47395;42.032;-8.634;2023-04-23T10:02:01;100971.38;;;17.74;88.93
61528;BME280;47395;42.032;-8.634;2023-04-23T10:04:02;100970.69;;;17.84;89.32
61528;BME280;47395;42.032;-8.634;2023-04-23T10:06:03;100964.53;;;17.95;88.77
61528;BME280;47395;42.032;-8.634;2023-04-23T10:08:05;100963.94;;;17.91;88.38
61528;BME280;47395;42.032;-8.634;2023-04-23T10:10:07;100965.63;;;17.92;88.35
61528;BME280;47395;42.032;-8.634;2023-04-23T10:12:09;100968.66;;;17.99;86.96
61528;BME280;47395;42.032;-8.634;2023-04-23T10:14:11;100965.31;;;18.08;86.66
61528;BME280;47395;42.032;-8.634;2023-04-23T10:16:12;100957.78;;;18.02;86.64
61528;BME280;47395;42.032;-8.634;2023-04-23T10:18:13;100967.47;;;18.03;86.34
61528;BME280;47395;42.032;-8.634;2023-04-23T10:20:15;100982.59;;;17.91;86.42
61528;BME280;47395;42.032;-8.634;2023-04-23T10:22:17;100982.59;;;17.91;86.42
61528;BME280;47395;42.032;-8.634;2023-04-23T10:24:19;100975.97;;;17.72;87.08
61528;BME280;47395;42.032;-8.634;2023-04-23T10:26:23;100978.19;;;17.90;87.40
61528;BME280;47395;42.032;-8.634;2023-04-23T10:28:25;100977.75;;;17.96;86.96
61528;BME280;47395;42.032;-8.634;2023-04-23T10:30:31;100978.06;;;17.80;87.98